Time;durP1;ratioP1;P1;durP2;ratioP2;P2;SDS_P1;SDS_P2;PMS_P1;PMS_P2;Temp;Humidity;BMP_temperature;BMP_pressure;BME280_temperature;BME280_humidity;BME280_pressure;Samples;Min_cycle;Max_cycle;Signal;HPM_P1;HPM_P2
2021/06/22 00:00:29;;;;;;;4.27;3.77;;;20.00;99.90;;;;;;5094004;28;20418;-89
2021/06/22 00:02:56;;;;;;;4.60;3.93;;;20.00;99.90;;;;;;5077603;28;20434;-89
2021/06/22 00:05:23;;;;;;;4.40;4.00;;;20.10;99.30;;;;;;5114078;28;20515;-90
2021/06/22 00:07:50;;;;;;;4.87;4.47;;;20.10;98.10;;;;;;5114524;28;20413;-89
2021/06/22 00:10:18;;;;;;;4.60;4.20;;;20.10;98.80;;;;;;5113720;28;20464;-86
2021/06/22 00:12:44;;;;;;;4.70;4.40;;;20.10;99.30;;;;;;5112395;28;20474;-89
2021/06/22 00:15:13;;;;;;;6.20;4.10;;;20.20;98.20;;;;;;5114128;28;20462;-88
2021/06/22 00:17:39;;;;;;;5.10;4.10;;;20.20;99.00;;;;;;5099138;28;20428;-89
2021/06/22 00:20:07;;;;;;;5.27;4.87;;;20.30;99.00;;;;;;5093690;28;20446;-89
2021/06/22 00:22:33;;;;;;;7.43;5.00;;;20.30;98.20;;;;;;5093269;28;21177;-89
2021/06/22 00:24:58;;;;;;;5.30;4.33;;;20.30;98.40;;;;;;5093850;28;20785;-88
2021/06/22 00:27:24;;;;;;;5.57;5.00;;;20.20;98.00;;;;;;5105072;28;20417;-88
2021/06/22 00:29:51;;;;;;;5.67;5.10;;;20.10;97.80;;;;;;5113487;28;20203;-88
2021/06/22 00:32:20;;;;;;;5.00;4.50;;;20.10;98.60;;;;;;5095117;28;20642;-86
2021/06/22 00:34:46;;;;;;;4.50;4.20;;;20.00;98.00;;;;;;5113703;28;20758;-88
2021/06/22 00:37:17;;;;;;;4.57;4.23;;;19.90;98.30;;;;;;5111787;28;20941;-88
2021/06/22 00:39:43;;;;;;;4.53;4.13;;;19.80;99.60;;;;;;5113758;28;20899;-88
2021/06/22 00:42:10;;;;;;;4.33;4.13;;;19.90;99.60;;;;;;5095197;28;20771;-87
2021/06/22 00:44:53;;;;;;;4.90;4.60;;;19.80;99.80;;;;;;5112681;28;20690;-88
2021/06/22 00:47:21;;;;;;;4.83;4.30;;;19.80;98.60;;;;;;5089282;28;20557;-87
2021/06/22 00:49:48;;;;;;;4.60;4.07;;;19.80;99.30;;;;;;5113563;28;20867;-88
2021/06/22 00:52:14;;;;;;;4.80;4.33;;;19.80;98.50;;;;;;5093413;28;20414;-88
2021/06/22 00:54:40;;;;;;;4.20;4.00;;;19.70;99.20;;;;;;5094307;28;20421;-88
2021/06/22 00:57:09;;;;;;;4.57;4.20;;;19.70;99.90;;;;;;5103949;28;20980;-88
2021/06/22 00:59:35;;;;;;;5.33;4.73;;;19.70;99.60;;;;;;5092195;28;20245;-88
2021/06/22 01:02:03;;;;;;;5.10;4.73;;;19.70;99.20;;;;;;5093216;28;20910;-89
2021/06/22 01:04:29;;;;;;;4.73;4.43;;;19.70;99.00;;;;;;5092485;28;20550;-89
2021/06/22 01:06:56;;;;;;;5.83;5.30;;;19.60;99.60;;;;;;5095270;28;20428;-90
2021/06/22 01:09:22;;;;;;;5.20;4.90;;;19.60;99.00;;;;;;5092179;28;20458;-89
2021/06/22 01:11:48;;;;;;;5.67;5.27;;;19.60;99.10;;;;;;5074807;28;20422;-89
2021/06/22 01:14:13;;;;;;;4.93;4.53;;;19.50;99.00;;;;;;5092701;28;20176;-88
2021/06/22 01:16:39;;;;;;;5.07;4.63;;;19.40;98.30;;;;;;5094850;28;20409;-88
2021/06/22 01:19:07;;;;;;;5.00;4.60;;;19.40;98.10;;;;;;5112823;28;20206;-88
2021/06/22 01:21:33;;;;;;;5.50;5.00;;;19.40;99.40;;;;;;5112139;28;20183;-88
2021/06/22 01:24:10;;;;;;;5.30;4.90;;;19.40;99.10;;;;;;5094745;28;20410;-89
2021/06/22 01:26:38;;;;;;;5.93;5.43;;;19.30;99.20;;;;;;5107290;28;20437;-89
2021/06/22 01:29:05;;;;;;;5.47;4.97;;;19.20;98.90;;;;;;5092336;28;20491;-89
2021/06/22 01:31:31;;;;;;;5.40;5.00;;;19.20;97.50;;;;;;5091691;28;20418;-89
2021/06/22 01:33:56;;;;;;;5.77;4.80;;;19.20;97.60;;;;;;5092259;28;20422;-90
2021/06/22 01:36:22;;;;;;;5.97;5.00;;;19.20;98.10;;;;;;5097673;28;20172;-89
2021/06/22 01:38:49;;;;;;;5.53;5.03;;;19.20;99.40;;;;;;5104308;28;20168;-89
2021/06/22 01:41:15;;;;;;;5.97;5.37;;;19.10;99.90;;;;;;5093151;28;20426;-90
2021/06/22 01:43:41;;;;;;;5.73;4.80;;;19.10;99.90;;;;;;5091637;28;20477;-90
2021/06/22 01:46:06;;;;;;;5.27;4.90;;;19.20;99.90;;;;;;5092496;28;20977;-89
2021/06/22 01:48:32;;;;;;;4.80;4.50;;;19.20;99.90;;;;;;5092187;28;20704;-89
2021/06/22 01:50:58;;;;;;;4.70;4.30;;;19.30;99.90;;;;;;5092159;28;20290;-89
2021/06/22 01:53:24;;;;;;;5.40;4.90;;;19.30;99.90;;;;;;5105895;28;20183;-89
2021/06/22 01:55:51;;;;;;;5.03;4.43;;;19.40;99.90;;;;;;5112917;28;20461;-89
2021/06/22 01:58:18;;;;;;;5.47;4.97;;;19.40;99.60;;;;;;5078085;28;20790;-90
2021/06/22 02:00:48;;;;;;;5.10;4.57;;;19.50;99.40;;;;;;5092934;28;20463;-89
2021/06/22 02:03:16;;;;;;;4.53;4.30;;;19.50;98.60;;;;;;5092496;28;20418;-90
2021/06/22 02:05:41;;;;;;;4.33;4.03;;;19.40;99.30;;;;;;5111272;28;20470;-90
2021/06/22 02:08:07;;;;;;;5.37;4.87;;;19.40;99.90;;;;;;5097823;28;20785;-90
2021/06/22 02:10:33;;;;;;;4.70;4.40;;;19.50;99.40;;;;;;5096029;28;20196;-89
2021/06/22 02:12:59;;;;;;;5.33;4.93;;;19.50;99.80;;;;;;5099561;28;20268;-89
2021/06/22 02:15:25;;;;;;;4.50;3.67;;;19.50;99.70;;;;;;5101320;28;20487;-88
2021/06/22 02:17:51;;;;;;;4.13;3.83;;;19.60;98.40;;;;;;5108591;28;20283;-89
2021/06/22 02:20:17;;;;;;;4.80;4.50;;;19.60;98.10;;;;;;5098672;28;20180;-89
2021/06/22 02:22:42;;;;;;;4.07;3.67;;;19.60;99.40;;;;;;5098016;28;20203;-89
2021/06/22 02:25:10;;;;;;;4.50;4.20;;;19.60;99.30;;;;;;5116576;28;20447;-90
2021/06/22 02:27:36;;;;;;;4.87;4.47;;;19.60;98.20;;;;;;5104075;28;20187;-90
2021/06/22 02:30:08;;;;;;;4.70;4.30;;;19.60;98.50;;;;;;5096097;28;20505;-88
2021/06/22 02:32:36;;;;;;;5.60;5.10;;;19.60;99.40;;;;;;5095562;28;20790;-88
2021/06/22 02:35:02;;;;;;;4.90;4.30;;;19.60;97.90;;;;;;5096012;28;20756;-87
2021/06/22 02:37:28;;;;;;;4.13;3.93;;;19.50;99.10;;;;;;5097853;28;20547;-88
2021/06/22 02:39:54;;;;;;;4.77;4.47;;;19.60;99.90;;;;;;5116550;28;20526;-88
2021/06/22 02:42:19;;;;;;;4.20;3.90;;;19.60;98.40;;;;;;5098160;28;20195;-88
2021/06/22 02:44:45;;;;;;;4.57;4.37;;;19.70;98.80;;;;;;5097189;28;20176;-88
2021/06/22 02:47:11;;;;;;;4.27;3.90;;;19.70;98.40;;;;;;5110433;28;20250;-88
2021/06/22 02:49:36;;;;;;;4.47;4.07;;;19.80;98.30;;;;;;5115523;28;20203;-88
2021/06/22 02:52:05;;;;;;;5.97;4.70;;;19.90;97.70;;;;;;5114682;28;20233;-88
2021/06/22 02:54:33;;;;;;;4.13;3.83;;;20.00;98.20;;;;;;5115480;28;20184;-88
2021/06/22 02:56:59;;;;;;;4.60;4.20;;;20.00;97.50;;;;;;5116183;28;20457;-87
2021/06/22 02:59:25;;;;;;;5.50;4.83;;;20.00;97.70;;;;;;5111571;28;20481;-85
2021/06/22 03:01:50;;;;;;;5.70;5.23;;;20.00;97.70;;;;;;5114351;28;20179;-90
2021/06/22 03:04:16;;;;;;;5.67;5.17;;;20.00;97.20;;;;;;5095452;28;20616;-91
2021/06/22 03:06:42;;;;;;;7.20;4.93;;;19.90;96.80;;;;;;5094668;28;20176;-92
2021/06/22 03:09:07;;;;;;;5.53;4.73;;;19.80;96.60;;;;;;5095936;28;20180;-91
2021/06/22 03:11:33;;;;;;;5.70;5.17;;;19.70;98.40;;;;;;5094878;28;20267;-91
2021/06/22 03:13:59;;;;;;;6.73;6.17;;;19.70;97.20;;;;;;5077048;28;20212;-88
2021/06/22 03:16:24;;;;;;;6.87;6.27;;;19.70;96.40;;;;;;5115499;28;20577;-85
2021/06/22 03:18:50;;;;;;;7.50;6.80;;;19.60;96.50;;;;;;5115412;28;20243;-90
2021/06/22 03:21:16;;;;;;;10.07;7.77;;;19.40;97.90;;;;;;5114817;28;20542;-91
2021/06/22 03:23:42;;;;;;;10.83;9.47;;;19.40;98.40;;;;;;5114968;28;20183;-91
2021/06/22 03:26:07;;;;;;;12.07;9.57;;;19.50;98.50;;;;;;5111920;28;20228;-90
2021/06/22 03:28:33;;;;;;;18.13;15.03;;;19.60;98.10;;;;;;5094130;28;20484;-90
2021/06/22 03:30:59;;;;;;;13.10;11.70;;;19.60;98.30;;;;;;5094333;28;20205;-90
2021/06/22 03:33:25;;;;;;;21.07;18.87;;;19.60;98.10;;;;;;5076551;28;20251;-85
2021/06/22 03:35:51;;;;;;;25.20;22.53;;;19.60;98.00;;;;;;5095127;28;20177;-91
2021/06/22 03:38:16;;;;;;;15.30;13.77;;;19.70;99.10;;;;;;5097180;28;20478;-90
2021/06/22 03:40:42;;;;;;;10.63;9.53;;;19.80;97.10;;;;;;5114152;28;20183;-90
2021/06/22 03:43:08;;;;;;;12.97;11.67;;;19.80;96.70;;;;;;5096955;28;20202;-90
2021/06/22 03:45:33;;;;;;;13.67;12.17;;;19.70;97.00;;;;;;5113740;28;20212;-89
2021/06/22 03:47:59;;;;;;;10.87;8.90;;;19.60;97.00;;;;;;5096469;28;20176;-89
2021/06/22 03:50:25;;;;;;;12.77;11.50;;;19.60;96.20;;;;;;5109455;28;20200;-87
2021/06/22 03:52:51;;;;;;;11.23;10.13;;;19.50;97.90;;;;;;5093897;28;20180;-90
2021/06/22 03:55:26;;;;;;;11.70;10.50;;;19.50;97.60;;;;;;5094625;28;20235;-89
2021/06/22 03:57:53;;;;;;;8.50;7.67;;;19.50;97.60;;;;;;5095061;28;20361;-90
2021/06/22 04:00:20;;;;;;;15.27;9.30;;;19.50;96.40;;;;;;5094191;28;20505;-90
2021/06/22 04:02:47;;;;;;;12.93;10.20;;;19.40;97.40;;;;;;5103072;28;20422;-90
2021/06/22 04:05:12;;;;;;;10.83;9.20;;;19.40;98.70;;;;;;5098629;28;20420;-91
2021/06/22 04:07:38;;;;;;;10.70;8.40;;;19.40;98.70;;;;;;5116022;28;20413;-90
2021/06/22 04:10:04;;;;;;;9.00;8.10;;;19.40;97.60;;;;;;5116454;28;20207;-90
2021/06/22 04:12:30;;;;;;;9.10;8.27;;;19.40;98.10;;;;;;5115629;28;20499;-89
2021/06/22 04:14:56;;;;;;;7.17;6.47;;;19.40;97.00;;;;;;5105208;28;20479;-89
2021/06/22 04:17:21;;;;;;;17.30;8.40;;;19.40;96.80;;;;;;5094124;28;20551;-89
2021/06/22 04:19:47;;;;;;;11.17;8.07;;;19.30;97.70;;;;;;5093756;28;20207;-89
2021/06/22 04:22:13;;;;;;;10.23;8.20;;;19.30;98.30;;;;;;5075986;28;20183;-89
2021/06/22 04:24:38;;;;;;;8.93;8.13;;;19.20;97.90;;;;;;5075238;28;20181;-89
2021/06/22 04:27:04;;;;;;;8.97;7.70;;;19.20;98.20;;;;;;5103725;28;20542;-89
2021/06/22 04:29:30;;;;;;;8.47;7.50;;;19.20;98.90;;;;;;5113846;28;20560;-89
2021/06/22 04:31:56;;;;;;;8.03;7.30;;;19.30;98.90;;;;;;5101250;28;20414;-89
2021/06/22 04:34:22;;;;;;;9.00;8.20;;;19.30;99.50;;;;;;5107502;28;20175;-89
2021/06/22 04:36:48;;;;;;;11.53;8.70;;;19.40;98.90;;;;;;5134845;28;20503;-89
2021/06/22 04:39:14;;;;;;;10.37;7.90;;;19.50;98.50;;;;;;5124617;28;20208;-89
2021/06/22 04:41:40;;;;;;;11.40;8.90;;;19.60;97.80;;;;;;5098207;28;20419;-89
2021/06/22 04:44:06;;;;;;;9.23;8.40;;;19.70;97.30;;;;;;5115330;28;20183;-88
2021/06/22 04:46:32;;;;;;;7.70;6.90;;;19.70;98.30;;;;;;5114207;28;20405;-85
2021/06/22 04:48:58;;;;;;;11.27;7.77;;;19.80;97.60;;;;;;5111002;28;20175;-89
2021/06/22 04:51:23;;;;;;;8.17;7.33;;;19.80;97.90;;;;;;5114533;28;20468;-91
2021/06/22 04:53:49;;;;;;;12.33;7.63;;;19.80;97.30;;;;;;5105869;27;20184;-89
2021/06/22 04:56:15;;;;;;;16.53;8.47;;;19.80;96.80;;;;;;5079417;28;20243;-90
2021/06/22 04:58:41;;;;;;;9.10;7.13;;;19.70;97.90;;;;;;5099663;28;20175;-89
2021/06/22 05:01:07;;;;;;;8.50;7.70;;;19.70;97.40;;;;;;5107506;28;20495;-91
2021/06/22 05:03:35;;;;;;;9.53;8.53;;;19.70;97.70;;;;;;5098090;27;20905;-91
2021/06/22 05:06:01;;;;;;;9.00;8.20;;;19.70;97.00;;;;;;5099438;27;20414;-91
2021/06/22 05:08:26;;;;;;;9.37;8.47;;;19.80;97.20;;;;;;5102839;28;20405;-90
2021/06/22 05:10:53;;;;;;;9.47;8.50;;;19.80;97.30;;;;;;5111298;28;20944;-91
2021/06/22 05:13:20;;;;;;;11.60;8.97;;;19.80;96.30;;;;;;5112127;28;20478;-90
2021/06/22 05:15:46;;;;;;;10.70;9.70;;;19.70;96.80;;;;;;5110648;28;20973;-91
2021/06/22 05:18:12;;;;;;;11.03;8.40;;;19.70;97.00;;;;;;5112048;28;20421;-90
2021/06/22 05:20:37;;;;;;;11.23;8.00;;;19.60;96.20;;;;;;5113466;28;20176;-90
2021/06/22 05:23:04;;;;;;;8.83;8.00;;;19.50;97.30;;;;;;5112392;28;20175;-90
2021/06/22 05:25:30;;;;;;;10.47;9.47;;;19.60;98.00;;;;;;5109085;28;20176;-89
2021/06/22 05:27:55;;;;;;;10.27;8.90;;;19.60;97.80;;;;;;5113251;28;20413;-90
2021/06/22 05:30:21;;;;;;;9.73;7.77;;;19.60;97.00;;;;;;5111046;28;21119;-90
2021/06/22 05:32:47;;;;;;;9.63;8.63;;;19.50;97.90;;;;;;5101718;28;20175;-89
2021/06/22 05:35:19;;;;;;;11.53;9.30;;;19.60;97.80;;;;;;5113374;28;20436;-90
2021/06/22 05:37:45;;;;;;;14.43;8.70;;;19.70;97.80;;;;;;5094929;28;20180;-90
2021/06/22 05:40:12;;;;;;;10.70;8.73;;;19.70;97.60;;;;;;5082239;28;20418;-90
2021/06/22 05:42:38;;;;;;;10.13;8.63;;;19.70;97.10;;;;;;5105407;28;20533;-89
2021/06/22 05:45:05;;;;;;;10.00;9.00;;;19.70;97.10;;;;;;5098268;28;20431;-92
2021/06/22 05:47:31;;;;;;;10.27;7.00;;;19.70;97.50;;;;;;5100069;28;20265;-92
2021/06/22 05:49:58;;;;;;;9.43;8.43;;;20.10;99.40;;;;;;5104770;28;20484;-93
2021/06/22 05:52:24;;;;;;;9.80;8.50;;;20.30;94.30;;;;;;5089196;28;20433;-93
2021/06/22 05:54:50;;;;;;;9.50;8.73;;;20.10;94.00;;;;;;5109007;28;20429;-92
2021/06/22 05:57:15;;;;;;;12.57;8.90;;;20.00;94.00;;;;;;5116679;28;20229;-93
2021/06/22 05:59:41;;;;;;;15.03;8.83;;;19.90;94.00;;;;;;5097381;28;20628;-94
2021/06/22 06:02:07;;;;;;;10.47;9.50;;;19.70;94.30;;;;;;5116571;28;20177;-91
2021/06/22 06:04:33;;;;;;;10.17;8.70;;;19.50;95.00;;;;;;5090319;28;20219;-90
2021/06/22 06:06:59;;;;;;;12.17;10.23;;;19.40;95.10;;;;;;5107640;28;20517;-93
2021/06/22 06:09:26;;;;;;;10.00;9.07;;;19.20;95.60;;;;;;5108925;28;20312;-92
2021/06/22 06:11:51;;;;;;;14.10;9.73;;;19.10;95.90;;;;;;5104018;28;20451;-92
2021/06/22 06:14:17;;;;;;;12.00;10.47;;;19.10;96.20;;;;;;5112357;28;20517;-92
2021/06/22 06:16:43;;;;;;;11.47;10.20;;;19.00;96.00;;;;;;5110880;28;20167;-91
2021/06/22 06:19:09;;;;;;;14.90;11.13;;;18.90;96.20;;;;;;5094099;28;20433;-96
2021/06/22 06:21:38;;;;;;;12.27;10.97;;;18.70;96.40;;;;;;5111526;28;20172;-93
2021/06/22 06:24:05;;;;;;;13.00;11.60;;;18.60;96.40;;;;;;5113643;28;20168;-90
2021/06/22 06:26:37;;;;;;;16.47;11.17;;;18.70;96.80;;;;;;5105184;28;20422;-92
2021/06/22 06:29:16;;;;;;;17.20;11.40;;;18.70;97.50;;;;;;5106770;28;20414;-90
2021/06/22 06:31:42;;;;;;;11.50;10.40;;;18.70;97.30;;;;;;5109220;28;20509;-90
2021/06/22 06:34:08;;;;;;;13.20;11.27;;;18.70;96.20;;;;;;5108646;28;20453;-91
2021/06/22 06:36:33;;;;;;;11.90;10.80;;;18.70;95.90;;;;;;5092116;28;20204;-91
2021/06/22 06:38:59;;;;;;;11.27;10.23;;;18.60;95.70;;;;;;5105827;28;20183;-89
2021/06/22 06:41:25;;;;;;;12.03;10.83;;;18.50;95.80;;;;;;5112681;28;20527;-93
2021/06/22 06:43:50;;;;;;;11.10;10.00;;;18.50;96.20;;;;;;5093358;28;20195;-91
2021/06/22 06:46:16;;;;;;;11.40;10.17;;;18.60;96.70;;;;;;5109425;28;20888;-90
2021/06/22 06:48:42;;;;;;;9.60;8.83;;;18.70;96.20;;;;;;5105543;28;20535;-90
2021/06/22 06:51:08;;;;;;;12.07;10.67;;;18.70;96.00;;;;;;5074356;28;20286;-89
2021/06/22 06:53:34;;;;;;;11.23;10.13;;;18.70;96.30;;;;;;5096650;28;20423;-83
2021/06/22 06:56:00;;;;;;;10.83;9.83;;;18.70;96.60;;;;;;5103546;28;20477;-91
2021/06/22 06:58:25;;;;;;;10.70;8.83;;;18.70;96.00;;;;;;5113369;28;20179;-93
2021/06/22 07:00:51;;;;;;;9.40;8.40;;;18.70;95.90;;;;;;5096785;28;20217;-91
2021/06/22 07:03:17;;;;;;;10.17;9.27;;;18.70;95.90;;;;;;5115608;28;20171;-91
2021/06/22 07:05:43;;;;;;;13.60;9.37;;;18.70;96.30;;;;;;5102305;28;20717;-88
2021/06/22 07:08:08;;;;;;;10.03;9.13;;;18.60;96.70;;;;;;5095348;28;20200;-83
2021/06/22 07:10:34;;;;;;;10.60;9.50;;;18.50;96.50;;;;;;5094992;28;20197;-83
2021/06/22 07:13:04;;;;;;;10.73;9.63;;;18.50;96.30;;;;;;5094195;28;20674;-82
2021/06/22 07:15:30;;;;;;;10.43;9.13;;;18.30;96.40;;;;;;5095493;28;20175;-84
2021/06/22 07:17:56;;;;;;;12.43;11.23;;;18.30;96.80;;;;;;5093768;28;20426;-93
2021/06/22 07:20:22;;;;;;;11.10;10.10;;;18.30;97.40;;;;;;5099664;28;20521;-90
2021/06/22 07:22:47;;;;;;;10.87;9.87;;;18.30;97.60;;;;;;5094251;28;20528;-89
2021/06/22 07:25:15;;;;;;;13.40;10.70;;;18.30;97.40;;;;;;5095142;28;20255;-90
2021/06/22 07:27:40;;;;;;;14.07;9.70;;;18.40;97.50;;;;;;5095578;28;20180;-84
2021/06/22 07:30:07;;;;;;;12.07;10.97;;;18.40;97.60;;;;;;5094705;28;20477;-89
2021/06/22 07:32:33;;;;;;;12.10;10.63;;;18.40;97.60;;;;;;5094139;28;20226;-90
2021/06/22 07:34:58;;;;;;;10.60;9.60;;;18.40;97.90;;;;;;5103027;28;20449;-90
2021/06/22 07:37:24;;;;;;;11.60;9.40;;;18.30;97.40;;;;;;5094855;28;20176;-89
2021/06/22 07:39:50;;;;;;;11.20;9.97;;;18.30;97.10;;;;;;5100934;28;20172;-90
2021/06/22 07:42:16;;;;;;;12.83;11.13;;;18.40;97.10;;;;;;5096954;28;20215;-89
2021/06/22 07:44:41;;;;;;;10.23;9.17;;;18.50;97.30;;;;;;5094055;28;20183;-89
2021/06/22 07:47:07;;;;;;;11.13;10.13;;;18.40;96.40;;;;;;5095481;28;20176;-91
2021/06/22 07:49:33;;;;;;;11.70;10.50;;;18.50;97.50;;;;;;5104651;28;20207;-89
2021/06/22 07:51:58;;;;;;;12.07;11.00;;;18.50;97.50;;;;;;5105443;28;20183;-89
2021/06/22 07:54:24;;;;;;;12.17;10.40;;;18.60;97.50;;;;;;5114929;28;20176;-89
2021/06/22 07:56:50;;;;;;;10.87;9.60;;;18.70;97.70;;;;;;5075978;28;20307;-89
2021/06/22 07:59:15;;;;;;;11.63;10.03;;;18.80;97.20;;;;;;5073131;28;20232;-89
2021/06/22 08:01:41;;;;;;;13.03;10.17;;;18.80;96.80;;;;;;5073602;28;20181;-89
2021/06/22 08:04:07;;;;;;;10.60;9.60;;;18.90;97.40;;;;;;5072815;28;20176;-90
2021/06/22 08:06:32;;;;;;;12.10;10.83;;;18.90;96.10;;;;;;5073865;28;20248;-90
2021/06/22 08:08:58;;;;;;;11.67;10.47;;;18.90;96.10;;;;;;5073501;28;20183;-90
2021/06/22 08:11:24;;;;;;;11.57;10.57;;;18.90;96.20;;;;;;5073821;28;20258;-89
2021/06/22 08:13:50;;;;;;;11.43;10.30;;;18.80;95.70;;;;;;5073410;28;20415;-89
2021/06/22 08:16:16;;;;;;;9.67;8.87;;;18.80;96.20;;;;;;5074019;28;20411;-89
2021/06/22 08:18:42;;;;;;;7.03;6.43;;;18.80;96.20;;;;;;5072904;28;20187;-88
2021/06/22 08:21:07;;;;;;;6.03;5.43;;;18.70;95.00;;;;;;5073851;28;20176;-89
2021/06/22 08:23:33;;;;;;;6.20;5.80;;;18.60;95.10;;;;;;5072233;28;20197;-89
2021/06/22 08:26:00;;;;;;;6.57;5.97;;;18.50;94.70;;;;;;5072836;28;20544;-89
2021/06/22 08:28:26;;;;;;;6.10;5.70;;;18.50;95.40;;;;;;5072551;28;20177;-89
2021/06/22 08:30:52;;;;;;;5.93;4.83;;;18.60;95.80;;;;;;5072653;28;20565;-89
2021/06/22 08:33:18;;;;;;;6.03;5.63;;;18.60;95.10;;;;;;5073743;28;20613;-89
2021/06/22 08:35:44;;;;;;;5.90;5.60;;;18.60;94.50;;;;;;5072903;28;20399;-88
2021/06/22 08:38:12;;;;;;;5.23;4.83;;;18.60;95.00;;;;;;5073381;28;20453;-89
2021/06/22 08:40:40;;;;;;;6.67;4.33;;;18.40;94.20;;;;;;5073443;28;21019;-88
2021/06/22 08:43:07;;;;;;;6.53;5.30;;;18.30;94.80;;;;;;5073102;28;20415;-88
2021/06/22 08:45:33;;;;;;;6.60;5.90;;;18.30;95.20;;;;;;5073298;28;20443;-88
2021/06/22 08:48:08;;;;;;;6.37;5.87;;;18.30;95.50;;;;;;5072728;28;20500;-88
2021/06/22 08:50:35;;;;;;;6.40;5.90;;;18.30;95.50;;;;;;5072045;28;20193;-88
2021/06/22 08:53:00;;;;;;;6.50;6.10;;;18.20;95.40;;;;;;5072451;28;20936;-89
2021/06/22 08:55:29;;;;;;;7.27;5.90;;;18.30;95.70;;;;;;5082245;28;20469;-89
2021/06/22 08:58:00;;;;;;;6.57;5.60;;;18.30;96.30;;;;;;5113182;28;20234;-89
2021/06/22 09:00:27;;;;;;;6.47;6.07;;;18.30;96.70;;;;;;5113760;28;20405;-88
2021/06/22 09:02:58;;;;;;;5.97;5.63;;;18.40;97.20;;;;;;5113141;28;20883;-88
2021/06/22 09:05:25;;;;;;;5.97;5.47;;;18.40;96.80;;;;;;5113642;28;20417;-88
2021/06/22 09:07:53;;;;;;;6.20;5.60;;;18.40;96.50;;;;;;5112978;28;20838;-88
2021/06/22 09:10:23;;;;;;;7.43;6.73;;;18.40;96.50;;;;;;5113508;28;20947;-88
2021/06/22 09:12:49;;;;;;;8.13;7.43;;;18.40;96.70;;;;;;5112860;28;20422;-88
2021/06/22 09:15:23;;;;;;;7.80;7.20;;;18.40;96.90;;;;;;5095317;28;20402;-89
2021/06/22 09:17:49;;;;;;;8.13;7.07;;;18.40;97.40;;;;;;5112402;28;20426;-88
2021/06/22 09:20:37;;;;;;;6.97;6.37;;;18.50;97.70;;;;;;5112845;28;20410;-88
2021/06/22 09:23:27;;;;;;;6.63;5.67;;;18.60;97.50;;;;;;5112777;28;20441;-88
2021/06/22 09:25:55;;;;;;;7.30;6.43;;;18.70;97.60;;;;;;5112478;28;20512;-87
2021/06/22 09:28:26;;;;;;;8.07;6.57;;;18.80;97.30;;;;;;5113297;28;20771;-88
2021/06/22 09:30:58;;;;;;;7.10;6.20;;;18.80;97.40;;;;;;5112641;28;20452;-87
2021/06/22 09:34:04;;;;;;;6.93;6.33;;;18.90;97.00;;;;;;5113231;28;20406;-88
2021/06/22 09:36:31;;;;;;;6.03;5.53;;;19.00;96.90;;;;;;5010611;28;20432;-88
2021/06/22 09:39:02;;;;;;;6.90;6.30;;;19.10;96.30;;;;;;5010241;28;20421;-88
2021/06/22 09:41:33;;;;;;;8.30;7.50;;;19.00;95.10;;;;;;5062710;28;20837;-88
2021/06/22 09:44:11;;;;;;;7.60;6.90;;;19.00;94.90;;;;;;5112222;28;20406;-88
2021/06/22 09:46:38;;;;;;;7.10;6.47;;;19.00;95.10;;;;;;5112733;28;20397;-88
2021/06/22 09:49:21;;;;;;;7.67;6.77;;;19.00;95.80;;;;;;5111765;28;20421;-88
2021/06/22 09:54:49;;;;;;;7.03;6.33;;;19.00;96.10;;;;;;5113006;28;21652;-88
2021/06/22 09:57:16;;;;;;;8.73;8.03;;;19.00;95.80;;;;;;5109256;28;20476;-88
2021/06/22 09:59:49;;;;;;;8.67;7.87;;;19.00;95.80;;;;;;5112703;28;20414;-87
2021/06/22 10:02:16;;;;;;;7.80;7.20;;;18.90;95.60;;;;;;5112987;28;20398;-87
2021/06/22 10:04:48;;;;;;;8.60;7.20;;;18.90;95.60;;;;;;5112908;28;20914;-88
2021/06/22 10:07:17;;;;;;;8.67;7.00;;;18.90;96.60;;;;;;5113044;28;20440;-87
2021/06/22 10:09:43;;;;;;;8.87;8.07;;;19.00;96.30;;;;;;5112973;28;20552;-88
2021/06/22 10:12:14;;;;;;;8.80;7.63;;;19.10;96.30;;;;;;5112241;28;20453;-88
2021/06/22 10:14:51;;;;;;;8.97;8.03;;;19.20;96.80;;;;;;5112930;28;20446;-87
2021/06/22 10:17:21;;;;;;;9.00;7.87;;;19.30;95.70;;;;;;5112787;28;20433;-87
2021/06/22 10:19:53;;;;;;;9.30;8.40;;;19.30;94.90;;;;;;5112680;28;20406;-88
2021/06/22 10:22:23;;;;;;;7.83;7.23;;;19.30;94.60;;;;;;5112740;28;20398;-88
2021/06/22 10:24:49;;;;;;;8.40;7.60;;;19.40;94.70;;;;;;5112236;28;20758;-88
2021/06/22 10:27:17;;;;;;;9.97;9.07;;;19.40;94.50;;;;;;5112844;28;20402;-88
2021/06/22 10:29:45;;;;;;;9.57;8.67;;;19.30;94.20;;;;;;5113935;28;20830;-89
2021/06/22 10:32:12;;;;;;;9.13;8.33;;;19.40;95.00;;;;;;5116264;28;20406;-88
2021/06/22 10:34:39;;;;;;;9.53;8.53;;;19.50;94.60;;;;;;5117198;28;20493;-88
2021/06/22 10:37:41;;;;;;;9.00;8.40;;;19.50;94.20;;;;;;5115884;28;20510;-88
2021/06/22 10:40:16;;;;;;;10.17;8.03;;;19.50;94.30;;;;;;5115157;28;20846;-89
2021/06/22 10:42:49;;;;;;;10.47;9.43;;;19.50;94.60;;;;;;5116297;28;20401;-89
2021/06/22 10:45:15;;;;;;;10.57;9.50;;;19.40;94.80;;;;;;5116409;28;20522;-88
2021/06/22 10:47:45;;;;;;;8.80;7.90;;;19.50;95.20;;;;;;5116617;28;20412;-89
2021/06/22 10:50:23;;;;;;;9.63;8.77;;;19.60;94.70;;;;;;5116135;28;20851;-88
2021/06/22 10:53:02;;;;;;;10.10;9.10;;;19.80;95.60;;;;;;5116569;28;20424;-89
2021/06/22 10:55:28;;;;;;;10.47;9.63;;;19.70;93.80;;;;;;5115938;28;20497;-88
2021/06/22 10:57:57;;;;;;;9.70;8.70;;;19.70;94.40;;;;;;5115206;28;20480;-88
2021/06/22 11:00:24;;;;;;;9.83;8.93;;;19.70;93.80;;;;;;5116092;28;20630;-88
2021/06/22 11:02:58;;;;;;;9.80;8.90;;;19.60;93.00;;;;;;5097764;28;20406;-85
2021/06/22 11:05:25;;;;;;;10.00;9.10;;;19.60;93.30;;;;;;5115909;28;20405;-89
2021/06/22 11:08:12;;;;;;;11.17;10.17;;;19.60;93.70;;;;;;5115419;28;20502;-88
2021/06/22 11:10:38;;;;;;;10.00;9.10;;;19.10;93.30;;;;;;5115982;28;20468;-88
2021/06/22 11:13:05;;;;;;;9.57;8.67;;;19.00;94.20;;;;;;5115301;28;20409;-88
2021/06/22 11:15:43;;;;;;;9.87;8.67;;;19.10;95.10;;;;;;5115717;28;20409;-88
2021/06/22 11:18:10;;;;;;;9.27;8.37;;;19.20;94.80;;;;;;5115123;28;20420;-88
2021/06/22 11:20:36;;;;;;;8.90;8.20;;;19.30;95.20;;;;;;5115620;28;20458;-88
2021/06/22 11:23:11;;;;;;;10.03;8.60;;;19.30;94.90;;;;;;5114599;28;20410;-88
2021/06/22 11:25:54;;;;;;;8.73;8.03;;;19.40;94.70;;;;;;5115800;28;20429;-88
2021/06/22 11:28:22;;;;;;;8.70;7.80;;;19.50;93.90;;;;;;5097874;28;20539;-87
2021/06/22 11:30:58;;;;;;;8.60;7.80;;;19.60;94.00;;;;;;5115407;28;20503;-88
2021/06/22 11:33:41;;;;;;;8.90;7.97;;;19.70;94.20;;;;;;5115418;28;20930;-88
2021/06/22 11:36:19;;;;;;;8.93;8.07;;;19.80;93.50;;;;;;5114805;28;20405;-88
2021/06/22 11:39:05;;;;;;;11.47;8.70;;;19.70;93.40;;;;;;5115348;28;20405;-88
2021/06/22 11:41:31;;;;;;;11.63;9.60;;;19.80;94.00;;;;;;5114729;28;20413;-88
2021/06/22 11:44:09;;;;;;;9.30;8.57;;;19.80;93.50;;;;;;5096430;28;20760;-88
2021/06/22 11:46:41;;;;;;;10.27;8.60;;;19.90;93.90;;;;;;5115245;28;20416;-89
2021/06/22 11:49:07;;;;;;;10.40;9.50;;;19.90;94.30;;;;;;5114611;28;20524;-89
2021/06/22 11:51:48;;;;;;;9.30;8.50;;;19.90;94.50;;;;;;5114970;28;20584;-89
2021/06/22 11:54:15;;;;;;;9.33;8.30;;;19.80;93.60;;;;;;5113927;28;20417;-88
2021/06/22 11:56:44;;;;;;;9.17;8.27;;;19.50;92.60;;;;;;5114934;28;20484;-88
2021/06/22 11:59:09;;;;;;;8.40;7.80;;;19.50;93.20;;;;;;5114303;28;20463;-88
2021/06/22 12:01:36;;;;;;;8.50;7.80;;;19.60;94.00;;;;;;5114571;28;20452;-88
2021/06/22 12:04:02;;;;;;;8.87;7.73;;;19.70;94.30;;;;;;5114124;28;20187;-87
2021/06/22 12:06:28;;;;;;;11.90;8.17;;;19.70;93.60;;;;;;5114752;28;20457;-88
2021/06/22 12:08:54;;;;;;;9.33;8.57;;;19.60;92.80;;;;;;5114370;28;20496;-85
2021/06/22 12:11:31;;;;;;;9.50;8.70;;;19.70;94.10;;;;;;5114533;28;20199;-88
2021/06/22 12:13:57;;;;;;;11.90;8.23;;;19.80;93.80;;;;;;5113919;28;20421;-89
2021/06/22 12:16:28;;;;;;;9.30;8.57;;;20.00;94.10;;;;;;5114557;28;20402;-89
2021/06/22 12:19:04;;;;;;;8.60;7.50;;;20.10;93.70;;;;;;5114527;28;20441;-88
2021/06/22 12:21:32;;;;;;;8.70;7.90;;;20.10;93.00;;;;;;5114526;28;20397;-88
2021/06/22 12:24:03;;;;;;;9.53;8.47;;;20.10;93.60;;;;;;5113758;28;20408;-87
2021/06/22 12:26:29;;;;;;;9.43;8.60;;;20.10;93.40;;;;;;5114329;28;20424;-88
2021/06/22 12:28:55;;;;;;;10.63;9.70;;;20.10;93.10;;;;;;5114568;28;20906;-85
2021/06/22 12:31:21;;;;;;;9.30;8.60;;;20.20;93.60;;;;;;5114114;28;20548;-88
2021/06/22 12:33:47;;;;;;;9.33;8.63;;;20.10;93.10;;;;;;5114300;28;20164;-88
2021/06/22 12:36:19;;;;;;;10.80;9.20;;;20.10;92.40;;;;;;5113294;28;20619;-88
2021/06/22 12:38:56;;;;;;;11.57;10.10;;;20.10;93.40;;;;;;5113989;28;20498;-87
2021/06/22 12:41:29;;;;;;;9.60;8.70;;;20.10;93.30;;;;;;5114363;28;20401;-88
2021/06/22 12:43:56;;;;;;;10.30;9.33;;;20.10;92.50;;;;;;5114512;28;20440;-85
2021/06/22 12:46:27;;;;;;;9.43;8.63;;;20.10;92.40;;;;;;5113786;28;20856;-88